Time;durP1;ratioP1;P1;durP2;ratioP2;P2;SDS_P1;SDS_P2;PMS_P1;PMS_P2;Temp;Humidity;BMP_temperature;BMP_pressure;BME280_temperature;BME280_humidity;BME280_pressure;Samples;Min_cycle;Max_cycle;Signal;HPM_P1;HPM_P2
2021/12/26 00:01:16;;;;;;;15.67;12.83;;;-9.00;99.90;;;;;;4964546;28;20560;-52
2021/12/26 00:03:43;;;;;;;18.30;14.30;;;-9.00;99.90;;;;;;4972946;28;20539;-52
2021/12/26 00:06:12;;;;;;;20.70;14.67;;;-9.00;99.90;;;;;;4973351;28;20623;-53
2021/12/26 00:08:42;;;;;;;19.73;15.70;;;-8.90;99.90;;;;;;4973495;28;20477;-52
2021/12/26 00:11:12;;;;;;;19.93;13.63;;;-9.00;99.90;;;;;;4972025;28;20497;-52
2021/12/26 00:13:39;;;;;;;22.93;15.73;;;-9.00;99.90;;;;;;4973609;28;20485;-53
2021/12/26 00:16:07;;;;;;;18.57;14.17;;;-9.00;99.90;;;;;;4973387;28;20481;-52
2021/12/26 00:18:36;;;;;;;17.63;14.33;;;-9.00;99.90;;;;;;4973468;28;20976;-53
2021/12/26 00:21:03;;;;;;;17.20;13.83;;;-9.10;99.90;;;;;;4972415;28;20489;-52
2021/12/26 00:23:31;;;;;;;23.23;13.80;;;-9.10;99.90;;;;;;4971659;28;20524;-52
2021/12/26 00:25:59;;;;;;;13.77;12.10;;;-9.10;99.90;;;;;;4972818;28;20473;-52
2021/12/26 00:28:26;;;;;;;20.60;13.23;;;-9.10;99.90;;;;;;4972625;28;20539;-52
2021/12/26 00:30:53;;;;;;;16.33;12.90;;;-9.20;99.90;;;;;;4973839;28;20497;-52
2021/12/26 00:33:19;;;;;;;17.60;11.70;;;-9.20;99.90;;;;;;4977390;28;20501;-53
2021/12/26 00:35:46;;;;;;;16.30;11.80;;;-9.20;99.90;;;;;;4977119;28;20885;-53
2021/12/26 00:38:13;;;;;;;19.20;12.93;;;-9.20;99.90;;;;;;4974228;28;20488;-52
2021/12/26 00:40:40;;;;;;;16.53;11.83;;;-9.20;99.90;;;;;;4971072;28;20520;-52
2021/12/26 00:43:09;;;;;;;12.77;10.63;;;-9.30;99.90;;;;;;4962870;28;20525;-52
2021/12/26 00:45:36;;;;;;;14.67;10.80;;;-9.30;99.90;;;;;;4966439;28;21162;-53
2021/12/26 00:48:04;;;;;;;12.53;9.87;;;-9.30;99.90;;;;;;4965340;28;20521;-53
2021/12/26 00:50:32;;;;;;;12.50;10.50;;;-9.40;99.90;;;;;;4967262;28;20534;-52
2021/12/26 00:52:59;;;;;;;14.27;10.63;;;-9.40;99.90;;;;;;4960123;28;20508;-53
2021/12/26 00:55:26;;;;;;;12.37;9.50;;;-9.30;99.90;;;;;;4969915;28;20520;-52
2021/12/26 00:57:53;;;;;;;11.10;9.63;;;-9.30;99.90;;;;;;4960977;28;20502;-52
2021/12/26 01:00:25;;;;;;;13.10;9.47;;;-9.40;99.90;;;;;;4964065;28;20466;-52
2021/12/26 01:02:53;;;;;;;11.77;9.87;;;-9.40;99.90;;;;;;4970487;28;20528;-52
2021/12/26 01:05:22;;;;;;;10.43;9.33;;;-9.50;99.90;;;;;;4960807;28;20502;-52
2021/12/26 01:07:57;;;;;;;13.47;10.50;;;-9.40;99.90;;;;;;4960784;28;20512;-53
2021/12/26 01:10:25;;;;;;;11.37;9.57;;;-9.50;99.90;;;;;;4966030;28;20469;-52
2021/12/26 01:12:53;;;;;;;20.87;16.10;;;-9.40;99.90;;;;;;4971205;28;21045;-53
2021/12/26 01:15:23;;;;;;;27.07;19.87;;;-9.40;99.90;;;;;;4966305;28;20937;-52
2021/12/26 01:17:55;;;;;;;37.07;27.33;;;-9.40;99.90;;;;;;4966348;28;20868;-52
2021/12/26 01:20:38;;;;;;;25.47;19.03;;;-9.40;99.90;;;;;;4962857;28;20845;-53
2021/12/26 01:23:04;;;;;;;13.07;10.50;;;-9.40;99.90;;;;;;4965054;28;20566;-52
2021/12/26 01:25:31;;;;;;;11.27;9.20;;;-9.50;99.90;;;;;;4962075;28;20520;-54
2021/12/26 01:27:58;;;;;;;13.57;10.20;;;-9.60;99.90;;;;;;4962345;28;20513;-52
2021/12/26 01:30:26;;;;;;;12.77;10.30;;;-9.60;99.90;;;;;;4970926;28;20497;-53
2021/12/26 01:32:53;;;;;;;10.00;8.67;;;-9.60;99.90;;;;;;4964185;28;20569;-52
2021/12/26 01:35:19;;;;;;;9.07;7.73;;;-9.60;99.90;;;;;;4966855;28;20489;-52
2021/12/26 01:37:46;;;;;;;11.50;9.23;;;-9.70;99.90;;;;;;4965652;28;20482;-53
2021/12/26 01:40:13;;;;;;;11.13;7.87;;;-9.60;99.90;;;;;;4966023;28;20792;-53
2021/12/26 01:42:39;;;;;;;12.27;8.33;;;-9.60;99.90;;;;;;4970357;28;20568;-53
2021/12/26 01:45:07;;;;;;;11.57;8.87;;;-9.60;99.90;;;;;;4968059;28;20865;-53
2021/12/26 01:47:35;;;;;;;9.70;7.93;;;-9.70;99.90;;;;;;4969038;28;20547;-52
2021/12/26 01:50:02;;;;;;;13.30;8.90;;;-9.70;99.90;;;;;;4961542;28;20506;-53
2021/12/26 01:52:28;;;;;;;9.57;8.00;;;-9.70;99.90;;;;;;4964663;28;20520;-53
2021/12/26 01:55:11;;;;;;;9.90;7.60;;;-9.60;99.90;;;;;;4962460;28;20462;-52
2021/12/26 01:57:37;;;;;;;9.40;8.43;;;-9.60;99.90;;;;;;4961800;28;20496;-53
2021/12/26 02:00:07;;;;;;;10.53;8.37;;;-9.60;99.90;;;;;;4961797;28;20509;-52
2021/12/26 02:02:34;;;;;;;9.80;8.23;;;-9.60;99.90;;;;;;4966855;28;20489;-52
2021/12/26 02:05:01;;;;;;;9.47;7.20;;;-9.70;99.90;;;;;;4968190;28;20905;-52
2021/12/26 02:07:28;;;;;;;9.00;7.60;;;-9.60;99.90;;;;;;4967879;28;20478;-52
2021/12/26 02:09:55;;;;;;;8.90;8.00;;;-9.70;99.90;;;;;;4964342;28;20465;-53
2021/12/26 02:12:22;;;;;;;15.13;7.50;;;-9.70;99.90;;;;;;4963084;28;20560;-52
2021/12/26 02:14:48;;;;;;;8.43;7.40;;;-9.80;99.90;;;;;;4964266;28;20498;-53
2021/12/26 02:17:17;;;;;;;8.47;7.63;;;-9.80;99.90;;;;;;4967142;28;20466;-52
2021/12/26 02:19:45;;;;;;;8.13;7.33;;;-9.80;99.90;;;;;;4964845;28;20500;-53
2021/12/26 02:22:16;;;;;;;7.80;6.97;;;-9.80;99.90;;;;;;4965312;28;20487;-53
2021/12/26 02:25:12;;;;;;;8.07;7.27;;;-9.70;99.90;;;;;;4966829;28;20469;-53
2021/12/26 02:27:42;;;;;;;10.93;7.93;;;-9.70;99.90;;;;;;4964115;28;20486;-52
2021/12/26 02:30:15;;;;;;;7.90;6.47;;;-9.70;99.90;;;;;;4962235;28;20513;-52
2021/12/26 02:32:45;;;;;;;8.33;7.40;;;-9.60;99.90;;;;;;4964590;28;20539;-53
2021/12/26 02:35:14;;;;;;;12.43;7.67;;;-9.60;99.90;;;;;;4963313;28;20462;-48
2021/12/26 02:37:40;;;;;;;7.87;7.13;;;-9.70;99.90;;;;;;4968169;28;20449;-50
2021/12/26 02:40:09;;;;;;;8.50;7.20;;;-9.60;99.90;;;;;;4962085;28;20548;-49
2021/12/26 02:42:35;;;;;;;9.80;7.43;;;-9.70;99.90;;;;;;4967663;28;20576;-50
2021/12/26 02:45:02;;;;;;;9.00;6.90;;;-9.80;99.90;;;;;;4966611;28;20497;-48
2021/12/26 02:47:35;;;;;;;8.60;7.70;;;-9.80;99.90;;;;;;4968175;28;20631;-49
2021/12/26 02:50:04;;;;;;;7.43;6.63;;;-9.80;99.90;;;;;;4972041;28;20552;-49
2021/12/26 02:52:32;;;;;;;8.57;7.20;;;-9.80;99.90;;;;;;4967128;28;20568;-49
2021/12/26 02:54:59;;;;;;;8.07;6.77;;;-9.80;99.90;;;;;;4967834;28;20568;-48
2021/12/26 02:57:28;;;;;;;15.33;6.63;;;-9.80;99.90;;;;;;4972169;28;20971;-48
2021/12/26 02:59:55;;;;;;;7.03;6.33;;;-9.80;99.90;;;;;;4960355;28;20544;-49
2021/12/26 03:02:21;;;;;;;10.63;6.60;;;-9.90;99.90;;;;;;4967792;28;20569;-49
2021/12/26 03:04:48;;;;;;;6.60;5.90;;;-9.90;99.90;;;;;;4968085;28;20536;-48
2021/12/26 03:07:16;;;;;;;9.60;6.30;;;-10.00;99.90;;;;;;4968103;28;20579;-49
2021/12/26 03:09:47;;;;;;;6.90;6.23;;;-9.90;99.90;;;;;;4968257;28;20472;-48
2021/12/26 03:12:13;;;;;;;7.17;6.57;;;-10.00;99.90;;;;;;4966261;28;20486;-48
2021/12/26 03:14:40;;;;;;;7.37;6.67;;;-9.90;99.90;;;;;;4965162;28;20899;-47
2021/12/26 03:17:07;;;;;;;7.13;6.20;;;-9.90;99.90;;;;;;4969811;28;20465;-48
2021/12/26 03:19:35;;;;;;;6.80;6.10;;;-10.00;99.90;;;;;;4975158;28;21066;-49
2021/12/26 03:22:02;;;;;;;9.27;7.37;;;-9.90;99.90;;;;;;4967261;28;20471;-48
2021/12/26 03:24:29;;;;;;;8.27;6.63;;;-9.90;99.90;;;;;;4965522;28;20462;-48
2021/12/26 03:27:00;;;;;;;9.13;6.77;;;-10.00;99.90;;;;;;4969701;28;20493;-47
2021/12/26 03:29:28;;;;;;;8.30;6.87;;;-10.00;99.90;;;;;;4965438;28;20553;-50
2021/12/26 03:31:54;;;;;;;8.17;6.93;;;-10.10;99.90;;;;;;4968836;28;20544;-48
2021/12/26 03:34:21;;;;;;;8.60;6.90;;;-10.10;99.90;;;;;;4965904;28;20548;-48
2021/12/26 03:36:52;;;;;;;11.53;6.70;;;-10.10;99.90;;;;;;4970908;28;20548;-47
2021/12/26 03:39:19;;;;;;;9.10;8.00;;;-10.20;99.90;;;;;;4970078;28;20527;-49
2021/12/26 03:41:46;;;;;;;12.07;7.67;;;-10.20;99.90;;;;;;4975005;28;20552;-48
2021/12/26 03:44:14;;;;;;;9.83;8.23;;;-10.10;99.90;;;;;;4975295;28;20523;-48
2021/12/26 03:46:41;;;;;;;9.43;8.23;;;-10.00;99.90;;;;;;4967771;28;20471;-47
2021/12/26 03:49:08;;;;;;;9.40;6.77;;;-10.00;99.90;;;;;;4973493;28;21023;-48
2021/12/26 03:51:35;;;;;;;8.37;7.10;;;-10.00;99.90;;;;;;4972647;28;20556;-48
2021/12/26 03:54:05;;;;;;;9.43;8.20;;;-10.10;99.90;;;;;;4965816;28;20525;-49
2021/12/26 03:56:32;;;;;;;11.70;8.57;;;-10.10;99.90;;;;;;4973990;28;20474;-48
2021/12/26 03:58:59;;;;;;;11.00;8.50;;;-10.10;99.90;;;;;;4973238;28;20548;-48
2021/12/26 04:01:27;;;;;;;10.67;8.57;;;-10.10;99.90;;;;;;4972990;28;20465;-48
2021/12/26 04:03:54;;;;;;;13.83;9.50;;;-10.00;99.90;;;;;;4968331;28;20573;-49
2021/12/26 04:06:21;;;;;;;10.10;8.90;;;-10.10;99.90;;;;;;4964742;28;20498;-47
2021/12/26 04:08:47;;;;;;;9.33;8.37;;;-10.10;99.90;;;;;;4969022;28;20933;-49
2021/12/26 04:11:14;;;;;;;11.80;8.93;;;-10.00;99.90;;;;;;4967078;28;20557;-49
2021/12/26 04:13:40;;;;;;;17.13;9.67;;;-10.10;99.90;;;;;;4967231;28;21053;-49
2021/12/26 04:16:07;;;;;;;11.77;8.70;;;-10.20;99.90;;;;;;4964624;28;20466;-49
2021/12/26 04:18:35;;;;;;;10.97;8.53;;;-10.20;99.90;;;;;;4966172;28;20817;-48
2021/12/26 04:21:02;;;;;;;13.77;9.63;;;-10.20;99.90;;;;;;4967906;28;20564;-48
2021/12/26 04:23:29;;;;;;;12.73;9.33;;;-10.20;99.90;;;;;;4970536;28;20572;-49
2021/12/26 04:25:55;;;;;;;15.70;9.50;;;-10.20;99.90;;;;;;4971079;28;20552;-49
2021/12/26 04:28:22;;;;;;;15.97;10.40;;;-10.20;99.90;;;;;;4970129;28;20576;-49
2021/12/26 04:30:48;;;;;;;16.50;11.20;;;-10.30;99.90;;;;;;4968933;28;20572;-49
2021/12/26 04:33:15;;;;;;;14.33;9.13;;;-10.40;99.90;;;;;;4970850;28;21082;-48
2021/12/26 04:35:43;;;;;;;12.83;10.20;;;-10.30;99.90;;;;;;4971303;28;20552;-48
2021/12/26 04:38:09;;;;;;;14.53;10.40;;;-10.30;99.90;;;;;;4969337;28;20540;-48
2021/12/26 04:40:36;;;;;;;15.47;11.33;;;-10.30;99.90;;;;;;4971542;28;20600;-48
2021/12/26 04:43:03;;;;;;;13.27;10.90;;;-10.30;99.90;;;;;;4970218;28;20565;-49
2021/12/26 04:45:29;;;;;;;14.20;10.27;;;-10.30;99.90;;;;;;4970099;28;20552;-48
2021/12/26 04:47:56;;;;;;;15.60;12.20;;;-10.20;99.90;;;;;;4969223;28;20481;-49
2021/12/26 04:50:27;;;;;;;15.93;12.13;;;-10.20;99.90;;;;;;4969780;28;20462;-49
2021/12/26 04:52:56;;;;;;;14.53;11.60;;;-10.30;99.90;;;;;;4971387;28;20551;-49
2021/12/26 04:55:26;;;;;;;15.63;10.70;;;-10.30;99.90;;;;;;4969079;28;20548;-48
2021/12/26 04:57:53;;;;;;;14.43;11.43;;;-10.40;99.90;;;;;;4971650;28;20556;-48
2021/12/26 05:00:23;;;;;;;14.23;11.03;;;-10.40;99.90;;;;;;4970468;28;20545;-50
2021/12/26 05:02:50;;;;;;;14.20;11.30;;;-10.30;99.90;;;;;;4971457;28;20485;-49
2021/12/26 05:05:17;;;;;;;12.70;11.27;;;-10.20;99.90;;;;;;4970344;28;20556;-49
2021/12/26 05:07:44;;;;;;;18.00;14.07;;;-10.30;99.90;;;;;;4971991;28;20572;-49
2021/12/26 05:10:15;;;;;;;16.50;11.93;;;-10.30;99.90;;;;;;4973671;28;20579;-49
2021/12/26 05:12:42;;;;;;;15.70;11.83;;;-10.20;99.90;;;;;;4971143;28;20476;-49
2021/12/26 05:15:12;;;;;;;17.87;12.53;;;-10.30;99.90;;;;;;4972549;28;20807;-49
2021/12/26 05:17:40;;;;;;;18.93;13.80;;;-10.30;99.90;;;;;;4971697;28;20862;-48
2021/12/26 05:20:09;;;;;;;16.37;12.67;;;-10.40;99.90;;;;;;4971512;28;20466;-48
2021/12/26 05:22:35;;;;;;;17.63;13.00;;;-10.50;99.90;;;;;;4988603;23;20823;-59
2021/12/26 05:25:03;;;;;;;19.60;12.67;;;-10.50;99.90;;;;;;5011083;28;20551;-59
2021/12/26 05:27:30;;;;;;;17.17;12.90;;;-10.60;99.90;;;;;;5011292;28;20470;-59
2021/12/26 05:29:57;;;;;;;17.53;12.60;;;-10.50;99.90;;;;;;5009965;28;20471;-59
2021/12/26 05:32:24;;;;;;;13.63;11.53;;;-10.50;99.90;;;;;;5001941;28;20581;-59
2021/12/26 05:34:50;;;;;;;15.90;12.90;;;-10.50;99.90;;;;;;4987001;28;20555;-59
2021/12/26 05:37:17;;;;;;;15.77;13.23;;;-10.50;99.90;;;;;;4988006;28;21018;-59
2021/12/26 05:39:43;;;;;;;17.87;12.27;;;-10.50;99.90;;;;;;4987988;28;21046;-58
2021/12/26 05:42:15;;;;;;;15.70;11.00;;;-10.50;99.90;;;;;;4983785;28;20551;-58
2021/12/26 05:44:43;;;;;;;17.17;13.23;;;-10.50;99.90;;;;;;4987814;28;22154;-59
2021/12/26 05:47:10;;;;;;;16.07;11.97;;;-10.60;99.90;;;;;;4988802;28;20552;-60
2021/12/26 05:49:36;;;;;;;14.10;11.37;;;-10.50;99.90;;;;;;4985893;28;21031;-58
2021/12/26 05:52:04;;;;;;;14.30;11.33;;;-10.50;99.90;;;;;;4987199;28;21029;-59
2021/12/26 05:54:31;;;;;;;16.90;12.67;;;-10.40;99.90;;;;;;4990722;28;20563;-58
2021/12/26 05:56:57;;;;;;;15.17;12.13;;;-10.50;99.90;;;;;;4987230;28;20565;-59
2021/12/26 05:59:24;;;;;;;16.80;12.53;;;-10.60;99.90;;;;;;4988172;28;20899;-57
2021/12/26 06:01:52;;;;;;;15.80;11.97;;;-10.60;99.90;;;;;;4987102;28;20478;-58
2021/12/26 06:04:18;;;;;;;17.90;11.70;;;-10.50;99.90;;;;;;4989303;28;20480;-59
2021/12/26 06:06:45;;;;;;;14.23;11.80;;;-10.50;99.90;;;;;;4984174;28;20579;-58
2021/12/26 06:09:12;;;;;;;15.23;12.70;;;-10.60;99.90;;;;;;4980044;28;20580;-58
2021/12/26 06:11:39;;;;;;;15.63;12.40;;;-10.50;99.90;;;;;;4988597;28;20563;-59
2021/12/26 06:14:06;;;;;;;17.77;13.67;;;-10.50;99.90;;;;;;4979826;28;20833;-57
2021/12/26 06:16:32;;;;;;;16.73;12.10;;;-10.50;99.90;;;;;;4979954;28;20552;-58
2021/12/26 06:19:00;;;;;;;16.10;12.40;;;-10.50;99.90;;;;;;4986519;28;20547;-59
2021/12/26 06:21:27;;;;;;;16.70;12.67;;;-10.50;99.90;;;;;;4984332;28;20559;-58
2021/12/26 06:23:54;;;;;;;20.33;13.40;;;-10.60;99.90;;;;;;4985308;28;20579;-58
2021/12/26 06:26:21;;;;;;;16.80;12.37;;;-10.60;99.90;;;;;;4983910;28;20488;-59
2021/12/26 06:28:48;;;;;;;17.40;14.03;;;-10.70;99.90;;;;;;4981387;28;20480;-58
2021/12/26 06:31:15;;;;;;;29.83;22.43;;;-10.60;99.90;;;;;;4985925;28;20551;-58
2021/12/26 06:33:42;;;;;;;39.77;25.33;;;-10.60;99.90;;;;;;4981625;28;20563;-58
2021/12/26 06:36:10;;;;;;;16.60;13.53;;;-10.60;99.90;;;;;;4982288;28;20549;-58
2021/12/26 06:38:38;;;;;;;12.80;11.50;;;-10.70;99.90;;;;;;4986361;28;20457;-58
2021/12/26 06:41:06;;;;;;;15.70;12.57;;;-10.80;99.90;;;;;;4986678;28;21017;-59
2021/12/26 06:43:33;;;;;;;15.97;12.23;;;-10.80;99.90;;;;;;4977850;28;20572;-57
2021/12/26 06:46:00;;;;;;;17.37;14.13;;;-10.70;99.90;;;;;;4984642;28;20498;-59
2021/12/26 06:48:27;;;;;;;20.03;14.03;;;-10.80;99.90;;;;;;4984971;28;20485;-58
2021/12/26 06:50:54;;;;;;;17.07;12.50;;;-10.70;99.90;;;;;;4990700;28;20731;-57
2021/12/26 06:53:22;;;;;;;16.37;12.67;;;-10.70;99.90;;;;;;4989985;28;20595;-60
2021/12/26 06:55:49;;;;;;;15.43;11.33;;;-10.60;99.90;;;;;;4979585;28;21036;-59
2021/12/26 06:58:17;;;;;;;14.30;11.60;;;-10.60;99.90;;;;;;4985430;28;20551;-58
2021/12/26 07:00:45;;;;;;;17.70;13.20;;;-10.60;99.90;;;;;;4989615;28;20691;-58
2021/12/26 07:03:11;;;;;;;19.90;11.50;;;-10.60;99.90;;;;;;4980377;28;20572;-58
2021/12/26 07:05:38;;;;;;;15.90;11.90;;;-10.70;99.90;;;;;;4981731;28;20547;-60
2021/12/26 07:08:05;;;;;;;21.13;11.20;;;-10.70;99.90;;;;;;4986768;28;20555;-58
2021/12/26 07:10:33;;;;;;;14.83;10.97;;;-10.70;99.90;;;;;;4990678;28;20540;-59
2021/12/26 07:12:59;;;;;;;14.43;11.60;;;-10.70;99.90;;;;;;4994144;28;20567;-58
2021/12/26 07:15:26;;;;;;;15.63;11.20;;;-10.60;99.90;;;;;;4992569;28;20557;-59
2021/12/26 07:17:53;;;;;;;15.10;11.43;;;-10.60;99.90;;;;;;4993904;28;20556;-59
2021/12/26 07:20:20;;;;;;;16.90;11.70;;;-10.60;99.90;;;;;;4989194;28;20543;-58
2021/12/26 07:22:46;;;;;;;18.10;12.37;;;-10.60;99.90;;;;;;4993585;28;20495;-59
2021/12/26 07:25:13;;;;;;;15.33;11.10;;;-10.60;99.90;;;;;;4994694;28;20539;-58
2021/12/26 07:27:41;;;;;;;13.90;11.00;;;-10.60;99.90;;;;;;4992354;28;20549;-58
2021/12/26 07:30:10;;;;;;;12.00;10.70;;;-10.60;99.90;;;;;;4985608;28;20590;-58
2021/12/26 07:32:36;;;;;;;13.00;9.95;;;-10.60;99.90;;;;;;4991651;28;21004;-57
2021/12/26 07:35:04;;;;;;;17.10;13.00;;;-10.50;99.90;;;;;;4994474;28;20731;-57
2021/12/26 07:37:30;;;;;;;17.97;13.07;;;-10.50;99.90;;;;;;4987130;28;20510;-57
2021/12/26 07:39:57;;;;;;;14.37;10.83;;;-10.40;99.90;;;;;;4991976;28;20556;-58
2021/12/26 07:42:23;;;;;;;13.13;10.10;;;-10.30;99.90;;;;;;4989916;28;21049;-58
2021/12/26 07:44:51;;;;;;;11.17;10.00;;;-10.30;99.90;;;;;;4994463;28;20496;-57
2021/12/26 07:47:18;;;;;;;15.33;11.97;;;-10.20;99.90;;;;;;4990130;28;20464;-58
2021/12/26 07:49:44;;;;;;;17.27;13.47;;;-10.00;99.90;;;;;;4987705;28;20520;-57
2021/12/26 07:52:15;;;;;;;17.67;14.30;;;-10.00;99.90;;;;;;4986400;28;20554;-58
2021/12/26 07:54:42;;;;;;;15.43;13.00;;;-10.00;99.90;;;;;;4986164;28;20460;-58
2021/12/26 07:57:09;;;;;;;12.70;11.13;;;-9.80;99.90;;;;;;4992728;28;20899;-58
2021/12/26 07:59:36;;;;;;;10.77;9.70;;;-9.90;99.90;;;;;;4989574;28;21092;-57
2021/12/26 08:02:05;;;;;;;13.80;10.47;;;-9.90;99.90;;;;;;4990012;28;20922;-58
2021/12/26 08:04:32;;;;;;;13.13;10.03;;;-9.90;99.90;;;;;;4989461;28;20559;-57
2021/12/26 08:06:59;;;;;;;11.43;10.03;;;-9.90;99.90;;;;;;4991647;28;20576;-58
2021/12/26 08:09:26;;;;;;;13.60;10.87;;;-9.80;99.90;;;;;;4993175;28;20985;-58
2021/12/26 08:11:53;;;;;;;13.43;11.67;;;-9.80;99.90;;;;;;4987068;28;20907;-57
2021/12/26 08:14:20;;;;;;;12.40;10.63;;;-9.60;99.90;;;;;;4991504;28;21109;-57
2021/12/26 08:16:48;;;;;;;14.10;10.77;;;-9.60;99.90;;;;;;4995579;28;21279;-58
2021/12/26 08:19:15;;;;;;;15.73;9.50;;;-9.40;99.90;;;;;;4999711;28;20487;-58
2021/12/26 08:21:42;;;;;;;14.00;10.23;;;-9.40;99.90;;;;;;4989488;28;21022;-57
2021/12/26 08:24:09;;;;;;;12.77;10.73;;;-9.30;99.90;;;;;;4988856;28;20861;-58
2021/12/26 08:26:36;;;;;;;11.40;10.23;;;-9.20;99.90;;;;;;4990888;28;21086;-57
2021/12/26 08:29:02;;;;;;;11.20;9.43;;;-9.10;99.90;;;;;;4989055;28;21785;-58
2021/12/26 08:31:30;;;;;;;21.67;11.00;;;-9.10;99.90;;;;;;4990069;28;20558;-58
2021/12/26 08:33:57;;;;;;;12.53;10.27;;;-9.00;99.90;;;;;;4988005;28;20492;-57
2021/12/26 08:36:25;;;;;;;11.77;10.50;;;-8.80;99.90;;;;;;4989111;28;20603;-57
2021/12/26 08:38:51;;;;;;;14.50;11.90;;;-8.80;99.90;;;;;;4992032;28;21021;-56
2021/12/26 08:41:18;;;;;;;12.70;11.10;;;-8.50;99.90;;;;;;4989878;28;20548;-57
2021/12/26 08:43:45;;;;;;;20.00;12.83;;;-8.30;99.90;;;;;;4992310;28;20618;-57
2021/12/26 08:46:12;;;;;;;20.30;12.50;;;-8.10;99.90;;;;;;4990050;28;20464;-58
2021/12/26 08:48:39;;;;;;;12.93;10.90;;;-8.00;99.90;;;;;;4988924;28;20896;-57
2021/12/26 08:51:06;;;;;;;11.83;10.37;;;-7.80;99.90;;;;;;4983283;28;20558;-57
2021/12/26 08:53:34;;;;;;;17.03;11.10;;;-7.60;99.90;;;;;;4992474;28;21132;-58
2021/12/26 08:56:03;;;;;;;15.00;11.50;;;-7.50;99.90;;;;;;4992957;28;20993;-57
2021/12/26 08:58:30;;;;;;;16.87;11.97;;;-7.60;99.90;;;;;;4983609;28;20457;-58
2021/12/26 09:00:57;;;;;;;16.67;13.67;;;-7.60;99.90;;;;;;4983502;28;20461;-58
2021/12/26 09:03:24;;;;;;;15.17;11.50;;;-7.30;99.90;;;;;;4984632;28;20584;-57
2021/12/26 09:05:50;;;;;;;20.50;13.97;;;-7.30;99.90;;;;;;4988360;28;20559;-57
2021/12/26 09:08:17;;;;;;;16.30;13.83;;;-7.10;99.90;;;;;;4989870;28;20496;-57
2021/12/26 09:10:45;;;;;;;15.83;12.70;;;-6.90;99.90;;;;;;4987361;28;21120;-59
2021/12/26 09:13:12;;;;;;;17.00;13.53;;;-6.50;99.90;;;;;;4983619;28;20575;-61
2021/12/26 09:15:39;;;;;;;23.30;13.80;;;-6.30;99.90;;;;;;4989994;28;20949;-59
2021/12/26 09:18:05;;;;;;;16.00;12.97;;;-6.20;99.90;;;;;;4992501;28;20465;-58
2021/12/26 09:20:32;;;;;;;16.00;12.40;;;-6.00;99.90;;;;;;4997657;28;21017;-57
2021/12/26 09:22:59;;;;;;;20.80;15.23;;;-5.70;99.90;;;;;;5000890;28;21120;-56
2021/12/26 09:25:26;;;;;;;20.37;14.73;;;-5.80;99.90;;;;;;4988906;28;20551;-57
2021/12/26 09:27:54;;;;;;;17.40;13.43;;;-5.70;99.90;;;;;;4981825;28;20564;-58
2021/12/26 09:30:21;;;;;;;20.90;14.77;;;-5.70;99.90;;;;;;4985541;28;20491;-58
2021/12/26 09:32:48;;;;;;;24.40;15.67;;;-5.40;99.90;;;;;;4984529;28;20595;-57
2021/12/26 09:35:14;;;;;;;20.73;15.30;;;-5.20;99.90;;;;;;4983000;28;20541;-57
2021/12/26 09:37:43;;;;;;;21.77;15.10;;;-5.10;99.90;;;;;;4983991;28;21539;-58
2021/12/26 09:40:12;;;;;;;17.00;12.80;;;-4.90;99.90;;;;;;4984988;28;20459;-58
2021/12/26 09:42:38;;;;;;;23.30;15.27;;;-4.90;99.90;;;;;;4983499;28;20517;-58
2021/12/26 09:45:08;;;;;;;20.50;14.80;;;-4.50;99.90;;;;;;4983207;28;20547;-58
2021/12/26 09:47:35;;;;;;;18.83;14.03;;;-4.10;99.90;;;;;;4985223;28;21337;-58
2021/12/26 09:50:02;;;;;;;20.50;14.60;;;-3.50;90.00;;;;;;4983310;28;20580;-58
2021/12/26 09:52:29;;;;;;;19.40;14.80;;;-3.70;99.90;;;;;;4980673;28;20886;-58
2021/12/26 09:54:55;;;;;;;27.37;15.30;;;-3.40;26.50;;;;;;4993234;28;21023;-57
2021/12/26 09:57:24;;;;;;;19.00;15.00;;;-2.40;53.70;;;;;;4993711;28;20444;-58
2021/12/26 09:59:51;;;;;;;22.27;15.17;;;-1.20;89.20;;;;;;4982921;28;20568;-57
2021/12/26 10:02:19;;;;;;;20.30;14.70;;;-1.10;99.90;;;;;;4984009;28;20457;-57
2021/12/26 10:04:47;;;;;;;21.00;15.17;;;-1.10;99.90;;;;;;4978375;28;20461;-57
2021/12/26 10:07:17;;;;;;;22.77;16.10;;;-1.40;99.90;;;;;;4987186;28;20600;-57
2021/12/26 10:09:47;;;;;;;23.23;15.67;;;-1.30;99.90;;;;;;4985700;28;20587;-57
2021/12/26 10:12:15;;;;;;;18.77;15.10;;;-2.00;89.70;;;;;;4981275;28;20588;-57
2021/12/26 10:14:44;;;;;;;15.70;13.30;;;-1.70;81.40;;;;;;4923972;28;20604;-58
2021/12/26 10:17:13;;;;;;;17.47;14.10;;;-1.50;96.00;;;;;;4962650;28;20591;-58
2021/12/26 10:19:44;;;;;;;19.90;13.93;;;-1.30;99.90;;;;;;4962094;28;20465;-57
2021/12/26 10:22:13;;;;;;;15.20;13.10;;;-1.20;99.90;;;;;;4963934;28;20468;-58
2021/12/26 10:24:42;;;;;;;18.00;11.50;;;-1.40;99.90;;;;;;4959291;28;20568;-56
2021/12/26 10:27:10;;;;;;;12.40;11.20;;;-1.90;99.90;;;;;;4961804;28;20544;-56
2021/12/26 10:29:39;;;;;;;15.07;11.93;;;-1.50;99.90;;;;;;4961978;28;20492;-57
2021/12/26 10:32:10;;;;;;;14.10;10.87;;;-1.90;99.90;;;;;;4966853;28;20500;-58
2021/12/26 10:34:42;;;;;;;12.00;9.67;;;-2.40;67.30;;;;;;4960487;28;20484;-57
2021/12/26 10:37:12;;;;;;;12.30;10.60;;;-2.20;69.30;;;;;;4962179;28;20479;-56
2021/12/26 10:39:42;;;;;;;13.30;9.90;;;-1.80;99.90;;;;;;4963930;28;20498;-57
2021/12/26 10:42:13;;;;;;;10.63;9.20;;;-2.00;96.30;;;;;;4963925;28;21128;-57
2021/12/26 10:44:42;;;;;;;10.70;9.50;;;-2.20;90.90;;;;;;4962779;28;20560;-57
2021/12/26 10:47:13;;;;;;;11.50;9.87;;;-2.20;74.20;;;;;;4960406;28;20469;-57
2021/12/26 10:49:45;;;;;;;12.93;9.03;;;-1.90;88.10;;;;;;4959848;28;20992;-58
2021/12/26 10:52:17;;;;;;;8.87;7.97;;;-1.70;99.90;;;;;;4963656;28;20511;-57
2021/12/26 10:54:49;;;;;;;14.60;9.60;;;-1.40;95.60;;;;;;4964173;28;20472;-57
2021/12/26 10:57:20;;;;;;;10.13;9.10;;;-1.60;99.50;;;;;;4958933;28;20470;-58
2021/12/26 10:59:57;;;;;;;9.27;8.27;;;-1.70;87.90;;;;;;4959760;28;20544;-58
2021/12/26 11:02:27;;;;;;;13.30;9.13;;;-1.20;99.90;;;;;;4972610;28;20552;-57
2021/12/26 11:05:01;;;;;;;8.77;7.87;;;-1.30;99.90;;;;;;4965288;28;20548;-58
2021/12/26 11:07:28;;;;;;;11.47;8.53;;;-1.70;93.70;;;;;;4962291;28;20493;-57
2021/12/26 11:10:06;;;;;;;8.07;7.23;;;-1.90;99.90;;;;;;4965135;28;20572;-57
2021/12/26 11:12:38;;;;;;;9.13;8.20;;;-1.60;99.90;;;;;;4970963;28;20577;-57
2021/12/26 11:15:06;;;;;;;11.17;7.97;;;-0.90;99.90;;;;;;4966108;28;20545;-57
2021/12/26 11:17:34;;;;;;;7.07;6.40;;;-1.00;99.90;;;;;;4965847;28;20497;-58
2021/12/26 11:20:04;;;;;;;9.73;8.43;;;-1.60;99.90;;;;;;4965277;28;20485;-56
2021/12/26 11:22:30;;;;;;;9.40;7.43;;;-1.60;99.90;;;;;;4966140;28;21074;-57
2021/12/26 11:24:58;;;;;;;9.33;7.33;;;-1.80;99.90;;;;;;4965702;28;20894;-57
2021/12/26 11:27:25;;;;;;;9.90;7.80;;;-2.00;96.30;;;;;;4961930;28;20470;-59
2021/12/26 11:29:52;;;;;;;10.63;7.87;;;-1.90;99.90;;;;;;4966977;28;20485;-57
2021/12/26 11:32:19;;;;;;;7.90;7.07;;;-1.80;99.90;;;;;;4967413;28;20958;-57
2021/12/26 11:34:47;;;;;;;9.53;6.30;;;-1.80;99.90;;;;;;4962284;28;20564;-57
2021/12/26 11:37:15;;;;;;;6.83;5.67;;;-1.70;99.90;;;;;;4965182;28;21040;-56
2021/12/26 11:39:43;;;;;;;6.53;5.93;;;-1.50;99.90;;;;;;4966047;28;20553;-58
2021/12/26 11:42:34;;;;;;;8.57;7.77;;;-1.50;99.90;;;;;;4964678;28;20588;-58
2021/12/26 11:45:11;;;;;;;6.67;5.97;;;-1.50;99.90;;;;;;4965101;28;20564;-58
2021/12/26 11:48:22;;;;;;;7.23;5.60;;;-1.70;99.90;;;;;;4969816;28;20475;-58
2021/12/26 11:51:01;;;;;;;6.70;6.07;;;-1.70;99.90;;;;;;4963091;28;20485;-57
2021/12/26 11:54:22;;;;;;;8.43;6.03;;;-1.60;99.90;;;;;;4963715;28;20568;-57
2021/12/26 11:57:01;;;;;;;5.70;5.10;;;-1.80;99.90;;;;;;4967115;28;20536;-57
2021/12/26 11:59:44;;;;;;;6.40;5.80;;;-1.60;99.90;;;;;;4971253;28;21050;-57
2021/12/26 12:02:11;;;;;;;6.80;6.10;;;-1.50;99.90;;;;;;4963611;28;21006;-58
2021/12/26 12:04:37;;;;;;;5.70;4.93;;;-1.50;99.90;;;;;;4965665;28;21090;-57
2021/12/26 12:07:07;;;;;;;6.33;5.63;;;-1.20;99.90;;;;;;4969356;28;20564;-59
2021/12/26 12:09:36;;;;;;;5.50;5.00;;;-1.30;99.90;;;;;;4969358;28;20473;-57
2021/12/26 12:12:07;;;;;;;6.50;5.53;;;-1.10;99.90;;;;;;4968925;28;20532;-57
2021/12/26 12:14:49;;;;;;;7.43;5.00;;;0.30;99.90;;;;;;4965962;28;20525;-56
2021/12/26 12:17:18;;;;;;;9.03;4.50;;;1.10;99.90;;;;;;4965286;28;20527;-58
2021/12/26 12:20:09;;;;;;;6.57;5.33;;;2.00;99.90;;;;;;4963850;28;20535;-56
2021/12/26 12:22:36;;;;;;;6.57;5.30;;;1.80;99.90;;;;;;4969347;28;21362;-55
2021/12/26 12:25:41;;;;;;;9.50;5.43;;;2.60;99.90;;;;;;4964871;28;20914;-55
2021/12/26 12:28:10;;;;;;;8.07;5.40;;;1.90;99.90;;;;;;4963168;28;20545;-56
2021/12/26 12:30:37;;;;;;;11.40;5.70;;;1.80;99.90;;;;;;4964619;28;20484;-56
2021/12/26 12:33:15;;;;;;;7.40;4.93;;;1.60;99.90;;;;;;4965803;28;20576;-55
2021/12/26 12:35:54;;;;;;;7.63;4.60;;;1.60;99.90;;;;;;4968707;28;20572;-56
2021/12/26 12:38:27;;;;;;;5.77;5.17;;;0.70;99.90;;;;;;4966680;28;20592;-56